Time;durP1;ratioP1;P1;durP2;ratioP2;P2;SDS_P1;SDS_P2;PMS_P1;PMS_P2;Temp;Humidity;BMP_temperature;BMP_pressure;BME280_temperature;BME280_humidity;BME280_pressure;Samples;Min_cycle;Max_cycle;Signal;HPM_P1;HPM_P2
2022/01/09 00:00:23;;;;;;;9.73;8.73;;;;;;;;;;4984817;28;20216;-89
2022/01/09 00:02:49;;;;;;;10.68;9.57;;;;;;;;;;4984280;28;20040;-89
2022/01/09 00:05:15;;;;;;;10.27;9.25;;;;;;;;;;4984338;28;20033;-88
2022/01/09 00:07:48;;;;;;;8.98;8.07;;;;;;;;;;5016907;28;20057;-90
2022/01/09 00:10:17;;;;;;;10.23;8.82;;;;;;;;;;5017057;28;20060;-89
2022/01/09 00:12:43;;;;;;;9.90;8.52;;;;;;;;;;5016848;28;20129;-90
2022/01/09 00:15:09;;;;;;;9.80;8.80;;;;;;;;;;5033246;28;20037;-89
2022/01/09 00:17:34;;;;;;;8.88;7.93;;;;;;;;;;5032824;28;20060;-89
2022/01/09 00:20:00;;;;;;;8.10;7.25;;;;;;;;;;5016603;28;20037;-89
2022/01/09 00:25:25;;;;;;;10.20;7.78;;;;;;;;;;4999471;28;20037;-89
2022/01/09 00:27:50;;;;;;;8.93;7.45;;;;;;;;;;4980729;28;20125;-89
2022/01/09 00:30:18;;;;;;;8.70;6.80;;;;;;;;;;4980211;28;20026;-88
2022/01/09 00:32:45;;;;;;;8.45;7.28;;;;;;;;;;4980573;28;20524;-88
2022/01/09 00:35:14;;;;;;;7.28;6.57;;;;;;;;;;4994951;28;20373;-89
2022/01/09 00:37:43;;;;;;;9.02;7.03;;;;;;;;;;5000181;28;20384;-89
2022/01/09 00:40:10;;;;;;;8.73;7.05;;;;;;;;;;4999725;28;20032;-89
2022/01/09 00:42:38;;;;;;;7.35;6.40;;;;;;;;;;4999857;28;20065;-89
2022/01/09 00:45:04;;;;;;;6.97;6.18;;;;;;;;;;5012996;28;20380;-88
2022/01/09 00:47:31;;;;;;;8.68;6.63;;;;;;;;;;4980060;28;20030;-89
2022/01/09 00:50:00;;;;;;;7.32;6.50;;;;;;;;;;4980144;28;20033;-89
2022/01/09 00:52:27;;;;;;;7.57;6.45;;;;;;;;;;4983762;28;20080;-89
2022/01/09 00:54:53;;;;;;;7.93;6.15;;;;;;;;;;5015958;28;20411;-88
2022/01/09 00:57:19;;;;;;;6.65;5.70;;;;;;;;;;4999519;28;20033;-88
2022/01/09 00:59:45;;;;;;;6.88;5.90;;;;;;;;;;4999667;28;20367;-89
2022/01/09 01:02:12;;;;;;;8.15;7.15;;;;;;;;;;4999399;28;20040;-90
2022/01/09 01:04:40;;;;;;;6.82;5.45;;;;;;;;;;4999290;28;20529;-89
2022/01/09 01:07:08;;;;;;;6.80;5.68;;;;;;;;;;4992938;28;20036;-89
2022/01/09 01:09:33;;;;;;;7.18;5.10;;;;;;;;;;5035602;28;20024;-88
2022/01/09 01:11:59;;;;;;;6.97;5.15;;;;;;;;;;5019307;28;20123;-88
2022/01/09 01:14:26;;;;;;;6.82;5.93;;;;;;;;;;5017812;28;20037;-88
2022/01/09 01:16:55;;;;;;;8.00;4.95;;;;;;;;;;5018602;28;20035;-88
2022/01/09 01:19:21;;;;;;;8.43;5.32;;;;;;;;;;5034989;28;20033;-88
2022/01/09 01:21:49;;;;;;;7.03;5.50;;;;;;;;;;5034965;28;20043;-89
2022/01/09 01:24:18;;;;;;;7.70;4.65;;;;;;;;;;5035420;28;20028;-88
2022/01/09 01:26:45;;;;;;;6.60;4.65;;;;;;;;;;5027010;28;20110;-89
2022/01/09 01:29:11;;;;;;;8.55;5.75;;;;;;;;;;5034414;28;20036;-88
2022/01/09 01:31:36;;;;;;;6.57;4.75;;;;;;;;;;5034694;28;20082;-89
2022/01/09 01:34:02;;;;;;;6.75;4.72;;;;;;;;;;5026638;28;20056;-89
2022/01/09 01:36:30;;;;;;;6.35;4.05;;;;;;;;;;4963125;28;20128;-87
2022/01/09 01:38:59;;;;;;;5.68;4.13;;;;;;;;;;4979534;28;20096;-89
2022/01/09 01:41:24;;;;;;;6.60;4.70;;;;;;;;;;4979459;28;20030;-89
2022/01/09 01:43:50;;;;;;;7.18;5.25;;;;;;;;;;4995231;28;20080;-91
2022/01/09 01:46:16;;;;;;;7.75;4.43;;;;;;;;;;4993883;28;20123;-89
2022/01/09 01:48:42;;;;;;;6.75;4.03;;;;;;;;;;5035169;28;20029;-90
2022/01/09 01:51:09;;;;;;;6.90;4.45;;;;;;;;;;5035439;28;20027;-90
2022/01/09 01:53:39;;;;;;;7.03;4.25;;;;;;;;;;5034705;28;20082;-90
2022/01/09 01:56:05;;;;;;;5.25;3.80;;;;;;;;;;5035154;28;20021;-90
2022/01/09 01:58:35;;;;;;;6.97;4.15;;;;;;;;;;5034954;28;20041;-90
2022/01/09 02:01:01;;;;;;;6.35;3.75;;;;;;;;;;5034997;28;20071;-90
2022/01/09 02:03:30;;;;;;;6.38;3.97;;;;;;;;;;5033291;28;20113;-89
2022/01/09 02:05:56;;;;;;;7.25;3.85;;;;;;;;;;4998974;28;20114;-89
2022/01/09 02:08:24;;;;;;;5.70;3.47;;;;;;;;;;4983288;28;20117;-90
2022/01/09 02:10:52;;;;;;;6.03;3.53;;;;;;;;;;5003012;28;20032;-89
2022/01/09 02:13:19;;;;;;;6.38;4.10;;;;;;;;;;5002282;28;20555;-89
2022/01/09 02:15:47;;;;;;;5.28;3.35;;;;;;;;;;4986661;28;20028;-88
2022/01/09 02:18:19;;;;;;;6.07;3.75;;;;;;;;;;5018725;28;20030;-87
2022/01/09 02:20:48;;;;;;;7.40;4.03;;;;;;;;;;5034954;28;20392;-87
2022/01/09 02:23:15;;;;;;;8.45;4.60;;;;;;;;;;5034679;28;20033;-87
2022/01/09 02:25:44;;;;;;;6.53;3.35;;;;;;;;;;5034800;28;20030;-86
2022/01/09 02:28:12;;;;;;;6.40;3.53;;;;;;;;;;5051251;28;20514;-86
2022/01/09 02:30:38;;;;;;;5.15;3.72;;;;;;;;;;5021224;28;20056;-87
2022/01/09 02:33:07;;;;;;;5.90;3.45;;;;;;;;;;5021238;28;20552;-87
2022/01/09 02:35:32;;;;;;;6.43;3.90;;;;;;;;;;5000322;28;20036;-86
2022/01/09 02:37:58;;;;;;;7.40;3.88;;;;;;;;;;4981936;28;20026;-87
2022/01/09 02:40:23;;;;;;;7.50;3.50;;;;;;;;;;4981767;28;20041;-86
2022/01/09 02:42:51;;;;;;;6.30;3.38;;;;;;;;;;5027594;28;20043;-86
2022/01/09 02:45:23;;;;;;;6.68;3.35;;;;;;;;;;5020857;28;20502;-86
2022/01/09 02:47:50;;;;;;;6.68;2.78;;;;;;;;;;4999307;28;20040;-86
2022/01/09 02:52:52;;;;;;;;;;;;;;;;;;4999036;28;20025;-86
2022/01/09 02:55:19;;;;;;;7.13;3.20;;;;;;;;;;5030087;28;20386;-86
2022/01/09 02:57:47;;;;;;;7.97;2.97;;;;;;;;;;4981663;28;20480;-86
2022/01/09 03:00:18;;;;;;;5.50;3.35;;;;;;;;;;4980917;28;20402;-86
2022/01/09 03:02:43;;;;;;;5.75;3.25;;;;;;;;;;4998843;28;20200;-86
2022/01/09 03:05:09;;;;;;;6.80;3.15;;;;;;;;;;5033822;28;20108;-86
2022/01/09 03:07:36;;;;;;;7.22;2.90;;;;;;;;;;5033672;28;20387;-86
2022/01/09 03:10:03;;;;;;;6.80;2.97;;;;;;;;;;5029759;28;20033;-86
2022/01/09 03:12:29;;;;;;;6.43;2.70;;;;;;;;;;4965122;28;20034;-86
2022/01/09 03:14:55;;;;;;;6.90;2.85;;;;;;;;;;4980619;28;20030;-85
2022/01/09 03:17:20;;;;;;;6.65;2.90;;;;;;;;;;4981832;28;20499;-85
2022/01/09 03:19:47;;;;;;;5.22;3.00;;;;;;;;;;5024877;28;20036;-84
2022/01/09 03:22:12;;;;;;;7.85;3.47;;;;;;;;;;4983880;28;20037;-85
2022/01/09 03:24:38;;;;;;;5.43;3.10;;;;;;;;;;4984066;28;20136;-86
2022/01/09 03:27:04;;;;;;;7.20;2.80;;;;;;;;;;4980863;28;20030;-86
2022/01/09 03:29:29;;;;;;;5.03;2.55;;;;;;;;;;4980670;28;20065;-86
2022/01/09 03:31:55;;;;;;;5.63;2.63;;;;;;;;;;4980773;28;20041;-86
2022/01/09 03:34:20;;;;;;;6.00;2.50;;;;;;;;;;4989780;28;20030;-86
2022/01/09 03:36:47;;;;;;;5.68;2.65;;;;;;;;;;5003473;28;20111;-85
2022/01/09 03:39:13;;;;;;;6.10;2.58;;;;;;;;;;5036314;28;20048;-86
2022/01/09 03:41:39;;;;;;;6.22;2.80;;;;;;;;;;5036243;28;20044;-85
2022/01/09 03:44:05;;;;;;;6.93;2.35;;;;;;;;;;5036026;28;20032;-86
2022/01/09 03:46:31;;;;;;;5.00;2.63;;;;;;;;;;5035762;28;20037;-85
2022/01/09 03:48:56;;;;;;;7.72;3.38;;;;;;;;;;5035000;28;20037;-85
2022/01/09 03:51:25;;;;;;;5.93;2.45;;;;;;;;;;5019484;28;20119;-85
2022/01/09 03:53:51;;;;;;;5.25;2.58;;;;;;;;;;5018563;28;20038;-84
2022/01/09 03:56:17;;;;;;;7.93;2.63;;;;;;;;;;4980397;28;20030;-85
2022/01/09 03:58:43;;;;;;;8.45;2.50;;;;;;;;;;4996328;28;20045;-85
2022/01/09 04:01:10;;;;;;;5.97;2.45;;;;;;;;;;5013904;28;20361;-85
2022/01/09 04:03:37;;;;;;;6.35;2.40;;;;;;;;;;5016996;28;20414;-85
2022/01/09 04:06:02;;;;;;;5.38;2.20;;;;;;;;;;5012640;28;20022;-85
2022/01/09 04:08:28;;;;;;;5.70;2.50;;;;;;;;;;5012751;28;20491;-85
2022/01/09 04:10:54;;;;;;;6.40;2.72;;;;;;;;;;4996159;28;20053;-85
2022/01/09 04:13:19;;;;;;;7.70;3.10;;;;;;;;;;5011871;28;20083;-84
2022/01/09 04:15:46;;;;;;;6.90;2.60;;;;;;;;;;5011728;28;20034;-84
2022/01/09 04:18:13;;;;;;;6.35;2.42;;;;;;;;;;5015241;28;20506;-84
2022/01/09 04:20:39;;;;;;;5.05;2.53;;;;;;;;;;5035042;28;20032;-84
2022/01/09 04:23:04;;;;;;;5.32;2.20;;;;;;;;;;5034683;28;20033;-84
2022/01/09 04:25:30;;;;;;;5.70;2.03;;;;;;;;;;5034966;28;20045;-84
2022/01/09 04:27:55;;;;;;;5.72;2.55;;;;;;;;;;5016840;28;20423;-84
2022/01/09 04:30:21;;;;;;;5.30;2.38;;;;;;;;;;5015289;28;20030;-84
2022/01/09 04:32:46;;;;;;;6.10;2.28;;;;;;;;;;5018114;28;20039;-84
2022/01/09 04:35:12;;;;;;;5.35;2.33;;;;;;;;;;5000840;28;20025;-83
2022/01/09 04:37:38;;;;;;;5.80;1.95;;;;;;;;;;4979417;28;20095;-83
2022/01/09 04:40:05;;;;;;;6.90;2.58;;;;;;;;;;4979268;28;20551;-84
2022/01/09 04:42:41;;;;;;;5.47;2.10;;;;;;;;;;4979074;28;20224;-83
2022/01/09 04:45:08;;;;;;;4.78;1.85;;;;;;;;;;4982945;28;20038;-84
2022/01/09 04:47:34;;;;;;;3.97;1.63;;;;;;;;;;5018146;28;20033;-83
2022/01/09 04:49:59;;;;;;;5.88;2.92;;;;;;;;;;5034204;28;20033;-83
2022/01/09 04:52:30;;;;;;;5.97;2.00;;;;;;;;;;5015894;28;20032;-83
2022/01/09 04:54:56;;;;;;;4.97;2.25;;;;;;;;;;5030349;28;20167;-83
2022/01/09 04:57:21;;;;;;;4.70;1.58;;;;;;;;;;5031161;28;20029;-83
2022/01/09 04:59:47;;;;;;;5.80;2.10;;;;;;;;;;5010934;28;20072;-83
2022/01/09 05:02:12;;;;;;;6.95;2.20;;;;;;;;;;5007952;28;20368;-83
2022/01/09 05:04:37;;;;;;;8.75;2.25;;;;;;;;;;4998255;28;20025;-83
2022/01/09 05:07:03;;;;;;;5.53;2.05;;;;;;;;;;5014259;28;20037;-82
2022/01/09 05:09:29;;;;;;;6.22;2.20;;;;;;;;;;5014592;28;20561;-82
2022/01/09 05:11:54;;;;;;;4.78;1.88;;;;;;;;;;5030392;28;20095;-83
2022/01/09 05:14:19;;;;;;;4.75;1.67;;;;;;;;;;5014104;28;20052;-82
2022/01/09 05:16:45;;;;;;;4.35;1.65;;;;;;;;;;5030431;28;20107;-82
2022/01/09 05:19:18;;;;;;;5.22;2.00;;;;;;;;;;5030267;28;20046;-82
2022/01/09 05:21:44;;;;;;;5.57;1.88;;;;;;;;;;4999928;28;20029;-82
2022/01/09 05:24:10;;;;;;;5.90;1.67;;;;;;;;;;4981454;28;20475;-82
2022/01/09 05:26:35;;;;;;;6.45;1.73;;;;;;;;;;4998458;28;20071;-82
2022/01/09 05:29:01;;;;;;;4.90;1.85;;;;;;;;;;4998061;28;20025;-82
2022/01/09 05:31:26;;;;;;;6.68;2.97;;;;;;;;;;4997321;28;20057;-82
2022/01/09 05:33:52;;;;;;;5.75;2.38;;;;;;;;;;5013503;28;20387;-82
2022/01/09 05:36:17;;;;;;;6.53;1.80;;;;;;;;;;4981900;28;20025;-82
2022/01/09 05:38:43;;;;;;;6.10;1.85;;;;;;;;;;5014270;28;20030;-83
2022/01/09 05:41:09;;;;;;;4.05;1.80;;;;;;;;;;4982798;28;20068;-87
2022/01/09 05:43:36;;;;;;;6.00;1.92;;;;;;;;;;4982116;28;20022;-89
2022/01/09 05:46:03;;;;;;;3.75;1.63;;;;;;;;;;4982866;28;20029;-91
2022/01/09 05:48:33;;;;;;;5.38;1.95;;;;;;;;;;4982909;28;20036;-90
2022/01/09 05:51:05;;;;;;;7.85;2.42;;;;;;;;;;4999556;28;20037;-91
2022/01/09 05:53:32;;;;;;;4.72;1.73;;;;;;;;;;5015376;28;20030;-90
2022/01/09 05:55:59;;;;;;;5.95;2.00;;;;;;;;;;4982469;28;20466;-89
2022/01/09 05:58:27;;;;;;;5.45;1.75;;;;;;;;;;5000286;28;20033;-87
2022/01/09 06:00:52;;;;;;;4.40;1.23;;;;;;;;;;5031426;28;20025;-86
2022/01/09 06:03:17;;;;;;;5.25;1.85;;;;;;;;;;4998225;28;20426;-86
2022/01/09 06:05:46;;;;;;;4.25;1.48;;;;;;;;;;4998116;28;20399;-86
2022/01/09 06:08:11;;;;;;;3.40;1.20;;;;;;;;;;4998459;28;20030;-85
2022/01/09 06:10:37;;;;;;;3.50;1.20;;;;;;;;;;5030844;28;20040;-85
2022/01/09 06:13:03;;;;;;;5.90;1.80;;;;;;;;;;5014049;28;20020;-85
2022/01/09 06:15:29;;;;;;;6.30;1.77;;;;;;;;;;5013698;28;20037;-85
2022/01/09 06:17:55;;;;;;;6.47;2.00;;;;;;;;;;5030060;28;20116;-85
2022/01/09 06:20:20;;;;;;;4.18;1.50;;;;;;;;;;5013921;28;20176;-84
2022/01/09 06:22:46;;;;;;;2.65;1.20;;;;;;;;;;5013445;28;20040;-84
2022/01/09 06:25:12;;;;;;;3.65;1.63;;;;;;;;;;5029892;28;20049;-84
2022/01/09 06:27:37;;;;;;;4.50;1.50;;;;;;;;;;5029986;28;20393;-84
2022/01/09 06:30:04;;;;;;;3.65;1.20;;;;;;;;;;5013570;28;20060;-84
2022/01/09 06:32:31;;;;;;;6.55;1.73;;;;;;;;;;5046262;28;20029;-84
2022/01/09 06:34:56;;;;;;;4.05;1.33;;;;;;;;;;5030206;28;20041;-83
2022/01/09 06:37:22;;;;;;;4.90;1.20;;;;;;;;;;4993394;28;20390;-84
2022/01/09 06:39:47;;;;;;;5.00;1.70;;;;;;;;;;5017108;28;20028;-83
2022/01/09 06:42:13;;;;;;;5.82;1.27;;;;;;;;;;5016842;28;20025;-83
2022/01/09 06:44:39;;;;;;;7.05;2.15;;;;;;;;;;5016448;28;20033;-83
2022/01/09 06:47:04;;;;;;;4.28;1.25;;;;;;;;;;5032912;28;20418;-84
2022/01/09 06:49:30;;;;;;;4.63;1.42;;;;;;;;;;5016888;28;20479;-84
2022/01/09 06:51:56;;;;;;;3.63;1.30;;;;;;;;;;5032683;28;20029;-83
2022/01/09 06:54:22;;;;;;;4.18;1.42;;;;;;;;;;4995469;28;20026;-83
2022/01/09 06:56:48;;;;;;;5.65;1.40;;;;;;;;;;4981303;28;20388;-83
2022/01/09 06:59:14;;;;;;;4.32;1.38;;;;;;;;;;4980814;28;20373;-82
2022/01/09 07:01:40;;;;;;;4.30;1.33;;;;;;;;;;4986299;28;20036;-82
2022/01/09 07:04:05;;;;;;;4.05;1.70;;;;;;;;;;4992094;28;20064;-82
2022/01/09 07:06:30;;;;;;;4.30;1.10;;;;;;;;;;5036304;28;20388;-82
2022/01/09 07:08:56;;;;;;;3.28;1.33;;;;;;;;;;5019979;28;20399;-84
2022/01/09 07:11:21;;;;;;;5.03;1.60;;;;;;;;;;5053061;28;20021;-82
2022/01/09 07:13:47;;;;;;;3.90;1.00;;;;;;;;;;5019528;28;20028;-83
2022/01/09 07:16:12;;;;;;;4.68;1.02;;;;;;;;;;5036245;28;20033;-82
2022/01/09 07:18:38;;;;;;;3.75;1.42;;;;;;;;;;5032365;28;20083;-82
2022/01/09 07:21:03;;;;;;;5.32;1.55;;;;;;;;;;5002888;28;20498;-83
2022/01/09 07:23:30;;;;;;;5.07;1.27;;;;;;;;;;5032515;28;20033;-82
2022/01/09 07:25:55;;;;;;;4.13;1.35;;;;;;;;;;5016458;28;20040;-82
2022/01/09 07:28:20;;;;;;;3.03;0.85;;;;;;;;;;5032716;28;20073;-82
2022/01/09 07:30:46;;;;;;;4.07;1.10;;;;;;;;;;5016672;28;20026;-82
2022/01/09 07:33:11;;;;;;;4.25;1.10;;;;;;;;;;5004057;28;20071;-82
2022/01/09 07:35:37;;;;;;;4.25;1.75;;;;;;;;;;5033978;28;20377;-78
2022/01/09 07:38:02;;;;;;;4.22;1.02;;;;;;;;;;4983607;28;20383;-79
2022/01/09 07:40:28;;;;;;;3.63;1.13;;;;;;;;;;5016035;28;20025;-79
2022/01/09 07:42:53;;;;;;;3.40;1.10;;;;;;;;;;5015988;28;20368;-80
2022/01/09 07:45:24;;;;;;;3.35;1.05;;;;;;;;;;5015241;28;20128;-79
2022/01/09 07:47:50;;;;;;;3.65;1.23;;;;;;;;;;5006939;28;20056;-80
2022/01/09 07:50:16;;;;;;;3.28;1.25;;;;;;;;;;5045803;28;20069;-80
2022/01/09 07:52:41;;;;;;;3.58;0.80;;;;;;;;;;5047754;28;20037;-81
2022/01/09 07:55:07;;;;;;;4.00;0.90;;;;;;;;;;5031929;28;20506;-80
2022/01/09 07:57:33;;;;;;;4.85;1.65;;;;;;;;;;5028056;28;20040;-77
2022/01/09 08:00:00;;;;;;;5.50;1.67;;;;;;;;;;5024582;28;20479;-77
2022/01/09 08:02:25;;;;;;;5.15;1.40;;;;;;;;;;5037291;28;20493;-77
2022/01/09 08:04:51;;;;;;;5.80;1.25;;;;;;;;;;5032958;28;20041;-77
2022/01/09 08:07:16;;;;;;;5.90;2.13;;;;;;;;;;5031433;28;20033;-77
2022/01/09 08:09:44;;;;;;;5.50;2.17;;;;;;;;;;5032894;28;20042;-77
2022/01/09 08:12:10;;;;;;;9.23;2.53;;;;;;;;;;5031777;28;20087;-77
2022/01/09 08:14:37;;;;;;;5.65;2.10;;;;;;;;;;5016243;28;20077;-77
2022/01/09 08:17:03;;;;;;;6.10;2.00;;;;;;;;;;5031241;28;20025;-77
2022/01/09 08:19:30;;;;;;;8.55;2.40;;;;;;;;;;5031407;28;20057;-79
2022/01/09 08:21:58;;;;;;;6.47;2.35;;;;;;;;;;5015098;28;20038;-79
2022/01/09 08:24:23;;;;;;;5.18;2.17;;;;;;;;;;5018339;28;20025;-79
2022/01/09 08:26:49;;;;;;;7.88;2.90;;;;;;;;;;5039328;28;20033;-80
2022/01/09 08:29:16;;;;;;;7.72;2.67;;;;;;;;;;5031444;28;20033;-81
2022/01/09 08:31:42;;;;;;;20.83;17.10;;;;;;;;;;5043823;28;20041;-80
2022/01/09 08:34:07;;;;;;;27.23;20.58;;;;;;;;;;5022068;28;20080;-80
2022/01/09 08:36:33;;;;;;;22.92;16.20;;;;;;;;;;5011010;28;20476;-80
2022/01/09 08:38:58;;;;;;;22.48;15.13;;;;;;;;;;5048100;28;20557;-80
2022/01/09 08:41:24;;;;;;;21.42;14.82;;;;;;;;;;5020273;28;20041;-80
2022/01/09 08:43:49;;;;;;;20.23;14.95;;;;;;;;;;5044741;28;20038;-80
2022/01/09 08:46:15;;;;;;;18.13;12.27;;;;;;;;;;5036737;28;20048;-80
2022/01/09 08:48:41;;;;;;;17.77;12.43;;;;;;;;;;4999310;28;20050;-81
2022/01/09 08:51:07;;;;;;;16.80;12.20;;;;;;;;;;5021701;28;20024;-81
2022/01/09 08:53:35;;;;;;;15.73;11.95;;;;;;;;;;5019663;28;20038;-81
2022/01/09 08:56:01;;;;;;;21.15;12.90;;;;;;;;;;4979466;28;20030;-80
2022/01/09 08:58:26;;;;;;;15.90;10.95;;;;;;;;;;4995120;28;20068;-80
2022/01/09 09:00:51;;;;;;;16.98;11.75;;;;;;;;;;5000180;28;21745;-80
2022/01/09 09:03:17;;;;;;;18.13;9.30;;;;;;;;;;5028079;28;20037;-80
2022/01/09 09:05:42;;;;;;;14.25;9.98;;;;;;;;;;5041217;28;20021;-80
2022/01/09 09:08:08;;;;;;;12.95;9.20;;;;;;;;;;5031260;28;20108;-80
2022/01/09 09:10:33;;;;;;;13.15;9.13;;;;;;;;;;4993106;28;20026;-80
2022/01/09 09:12:59;;;;;;;14.30;9.18;;;;;;;;;;4994917;28;20044;-80
2022/01/09 09:15:24;;;;;;;13.63;8.70;;;;;;;;;;5012872;28;20033;-80
2022/01/09 09:17:50;;;;;;;13.55;8.80;;;;;;;;;;5049785;28;20491;-80
2022/01/09 09:20:15;;;;;;;13.18;8.13;;;;;;;;;;5033197;28;20453;-79
2022/01/09 09:22:40;;;;;;;11.70;7.65;;;;;;;;;;5009542;28;20038;-79
2022/01/09 09:25:06;;;;;;;12.23;8.55;;;;;;;;;;4994187;28;20033;-80
2022/01/09 09:27:32;;;;;;;10.18;6.90;;;;;;;;;;5009234;28;20032;-79
2022/01/09 09:30:02;;;;;;;12.63;6.95;;;;;;;;;;5046798;28;20382;-79
2022/01/09 09:32:28;;;;;;;10.82;7.07;;;;;;;;;;5015790;28;20460;-80
2022/01/09 09:34:53;;;;;;;10.50;7.00;;;;;;;;;;5037899;28;20112;-80
2022/01/09 09:37:20;;;;;;;11.73;7.07;;;;;;;;;;5013307;28;20554;-80
2022/01/09 09:39:46;;;;;;;10.40;6.45;;;;;;;;;;5050171;28;20048;-79
2022/01/09 09:42:12;;;;;;;10.18;6.75;;;;;;;;;;5050001;28;20059;-79
2022/01/09 09:44:37;;;;;;;12.38;6.60;;;;;;;;;;5067007;28;20538;-80
2022/01/09 09:47:03;;;;;;;10.10;6.00;;;;;;;;;;5033322;28;20490;-79
2022/01/09 09:49:28;;;;;;;9.10;6.00;;;;;;;;;;5050248;28;20521;-80
2022/01/09 09:51:54;;;;;;;11.93;6.47;;;;;;;;;;5044611;28;20033;-80
2022/01/09 09:54:19;;;;;;;10.13;5.82;;;;;;;;;;4996922;28;20037;-80
2022/01/09 09:56:45;;;;;;;9.15;5.72;;;;;;;;;;5014069;28;20431;-81
2022/01/09 09:59:10;;;;;;;10.85;6.07;;;;;;;;;;5059120;28;20068;-80
2022/01/09 10:01:36;;;;;;;8.68;5.47;;;;;;;;;;5010636;28;20406;-81
2022/01/09 10:04:05;;;;;;;8.95;5.82;;;;;;;;;;5050261;28;20090;-81
2022/01/09 10:06:38;;;;;;;9.25;5.43;;;;;;;;;;5046011;28;20046;-80
2022/01/09 10:09:06;;;;;;;8.43;5.28;;;;;;;;;;5014287;28;20034;-80
2022/01/09 10:11:43;;;;;;;8.38;5.68;;;;;;;;;;5030321;28;20041;-80
2022/01/09 10:14:13;;;;;;;9.52;5.68;;;;;;;;;;5017342;28;20072;-80
2022/01/09 10:16:39;;;;;;;8.32;5.45;;;;;;;;;;5007342;28;20042;-82
2022/01/09 10:19:04;;;;;;;7.07;4.60;;;;;;;;;;5040491;28;20048;-86
2022/01/09 10:21:30;;;;;;;9.30;5.20;;;;;;;;;;5019598;28;20032;-82
2022/01/09 10:24:10;;;;;;;8.25;4.38;;;;;;;;;;5029476;28;20121;-84
2022/01/09 10:26:37;;;;;;;7.88;4.57;;;;;;;;;;4983571;28;20045;-84
2022/01/09 10:29:04;;;;;;;6.57;4.22;;;;;;;;;;5010800;28;20043;-84
2022/01/09 10:31:29;;;;;;;8.60;4.90;;;;;;;;;;5024790;28;20045;-85
2022/01/09 10:34:08;;;;;;;7.57;4.40;;;;;;;;;;5002397;28;20064;-84
2022/01/09 10:36:39;;;;;;;8.10;4.53;;;;;;;;;;5029077;28;20125;-84
2022/01/09 10:39:13;;;;;;;6.38;3.60;;;;;;;;;;5028441;28;20084;-85
2022/01/09 10:41:58;;;;;;;7.80;4.03;;;;;;;;;;5017625;28;20079;-85
2022/01/09 10:44:35;;;;;;;8.75;4.63;;;;;;;;;;5048355;28;20033;-84
2022/01/09 10:47:12;;;;;;;6.60;3.78;;;;;;;;;;5035271;28;20571;-84
2022/01/09 10:49:51;;;;;;;6.72;3.70;;;;;;;;;;5022313;28;20034;-84
2022/01/09 10:52:17;;;;;;;7.35;4.43;;;;;;;;;;5000760;28;20030;-84
2022/01/09 10:54:46;;;;;;;6.45;2.90;;;;;;;;;;5015841;28;20033;-84
2022/01/09 10:57:24;;;;;;;9.55;3.88;;;;;;;;;;4989911;28;20112;-84
2022/01/09 10:59:49;;;;;;;5.90;3.42;;;;;;;;;;4980724;28;20152;-84
2022/01/09 11:02:15;;;;;;;7.32;3.95;;;;;;;;;;5016075;28;20028;-79
2022/01/09 11:04:41;;;;;;;6.50;3.38;;;;;;;;;;5033350;28;20413;-82
2022/01/09 11:07:07;;;;;;;8.40;3.33;;;;;;;;;;5041195;28;20519;-81
2022/01/09 11:09:33;;;;;;;8.32;4.00;;;;;;;;;;5023896;28;20040;-80
2022/01/09 11:11:58;;;;;;;7.78;3.97;;;;;;;;;;5007411;28;20043;-80
2022/01/09 11:14:26;;;;;;;6.75;3.83;;;;;;;;;;5052170;28;20025;-80
2022/01/09 11:16:51;;;;;;;9.80;4.35;;;;;;;;;;5039793;28;20045;-80
2022/01/09 11:19:26;;;;;;;6.47;4.10;;;;;;;;;;5032773;28;20040;-80
2022/01/09 11:21:59;;;;;;;8.70;3.38;;;;;;;;;;5049334;28;20033;-81
2022/01/09 11:24:43;;;;;;;9.65;3.30;;;;;;;;;;5028939;28;20112;-81
2022/01/09 11:27:22;;;;;;;10.23;3.47;;;;;;;;;;5044990;28;20023;-77
2022/01/09 11:30:07;;;;;;;8.65;3.33;;;;;;;;;;5052731;28;20509;-77
2022/01/09 11:32:39;;;;;;;7.53;3.58;;;;;;;;;;5030477;28;20040;-77
2022/01/09 11:35:38;;;;;;;6.73;3.17;;;;;;;;;;5033012;28;20030;-77
2022/01/09 11:38:31;;;;;;;7.53;3.40;;;;;;;;;;5038953;28;20268;-77
2022/01/09 11:41:27;;;;;;;8.20;3.55;;;;;;;;;;5036941;28;20044;-77
2022/01/09 11:44:00;;;;;;;10.15;4.20;;;;;;;;;;5029252;28;20041;-77
2022/01/09 11:46:27;;;;;;;9.52;3.60;;;;;;;;;;5032830;28;20064;-77
2022/01/09 11:48:53;;;;;;;9.75;3.83;;;;;;;;;;5025243;28;20044;-77
2022/01/09 11:51:20;;;;;;;12.07;4.85;;;;;;;;;;5032967;28;20499;-77
2022/01/09 11:54:11;;;;;;;13.35;3.90;;;;;;;;;;5031710;28;20044;-77
2022/01/09 11:56:51;;;;;;;8.18;3.90;;;;;;;;;;5031432;28;20048;-77
2022/01/09 11:59:35;;;;;;;13.73;3.25;;;;;;;;;;5044658;28;20033;-77
2022/01/09 12:02:00;;;;;;;14.57;5.32;;;;;;;;;;5028600;28;20029;-77
2022/01/09 12:04:32;;;;;;;12.32;4.28;;;;;;;;;;5032975;28;20106;-77
2022/01/09 12:06:58;;;;;;;11.63;4.35;;;;;;;;;;5032157;28;20034;-77
2022/01/09 12:09:37;;;;;;;8.88;4.03;;;;;;;;;;5022813;28;20060;-77
2022/01/09 12:12:02;;;;;;;8.75;4.03;;;;;;;;;;5021798;28;20034;-77
2022/01/09 12:17:26;;;;;;;15.55;6.10;;;;;;;;;;5019936;28;20052;-77
2022/01/09 12:20:08;;;;;;;9.07;4.65;;;;;;;;;;5030285;28;20049;-77
2022/01/09 12:22:43;;;;;;;12.45;4.93;;;;;;;;;;5027237;28;20037;-76
2022/01/09 12:25:09;;;;;;;8.85;4.43;;;;;;;;;;5029971;28;20040;-76
2022/01/09 12:27:35;;;;;;;12.30;4.50;;;;;;;;;;4996728;28;20083;-77
2022/01/09 12:30:00;;;;;;;13.02;3.70;;;;;;;;;;5031570;28;20037;-77
2022/01/09 12:32:43;;;;;;;9.38;3.50;;;;;;;;;;5013630;28;20134;-77
2022/01/09 12:35:16;;;;;;;8.05;3.00;;;;;;;;;;5030558;28;20040;-77
2022/01/09 12:37:48;;;;;;;10.38;3.53;;;;;;;;;;5030769;28;20504;-77
2022/01/09 12:40:17;;;;;;;9.93;3.70;;;;;;;;;;5006238;28;20075;-77
2022/01/09 12:42:50;;;;;;;10.05;3.50;;;;;;;;;;5013381;28;20033;-77
2022/01/09 12:45:20;;;;;;;9.05;3.47;;;;;;;;;;4994269;28;20448;-77
2022/01/09 12:47:46;;;;;;;6.68;2.83;;;;;;;;;;5013151;28;20037;-77
2022/01/09 12:50:11;;;;;;;10.70;2.97;;;;;;;;;;5013574;28;20395;-77
2022/01/09 12:52:37;;;;;;;5.13;2.90;;;;;;;;;;5006682;28;20021;-78
2022/01/09 12:55:06;;;;;;;10.25;3.35;;;;;;;;;;5013219;28;20107;-79
2022/01/09 12:57:52;;;;;;;10.05;3.72;;;;;;;;;;5011259;28;20495;-78
2022/01/09 13:00:25;;;;;;;6.60;2.72;;;;;;;;;;5030588;28;20084;-79
2022/01/09 13:02:54;;;;;;;11.75;3.05;;;;;;;;;;5022993;28;20039;-79
2022/01/09 13:05:21;;;;;;;8.13;3.75;;;;;;;;;;5047652;28;20036;-79
2022/01/09 13:07:54;;;;;;;6.13;2.55;;;;;;;;;;5029917;28;20060;-79
2022/01/09 13:10:21;;;;;;;11.38;3.35;;;;;;;;;;5020213;28;20499;-79
2022/01/09 13:13:08;;;;;;;7.38;2.60;;;;;;;;;;5030744;28;20503;-79
2022/01/09 13:15:34;;;;;;;8.20;2.97;;;;;;;;;;5010822;28;20100;-79
2022/01/09 13:18:01;;;;;;;12.80;3.42;;;;;;;;;;4994025;28;20040;-79
2022/01/09 13:20:26;;;;;;;8.57;2.75;;;;;;;;;;4994425;28;20034;-79
2022/01/09 13:23:02;;;;;;;8.90;2.88;;;;;;;;;;4994576;28;20033;-80
2022/01/09 13:25:28;;;;;;;12.65;3.22;;;;;;;;;;5010395;28;20041;-79
2022/01/09 13:27:53;;;;;;;8.88;3.28;;;;;;;;;;5032368;28;20040;-80
2022/01/09 13:30:21;;;;;;;8.13;2.72;;;;;;;;;;5039934;28;20041;-79
2022/01/09 13:32:46;;;;;;;10.50;2.78;;;;;;;;;;5046663;28;20072;-79
2022/01/09 13:35:12;;;;;;;8.93;2.65;;;;;;;;;;5037426;28;20040;-80
2022/01/09 13:37:39;;;;;;;7.13;2.30;;;;;;;;;;5030250;28;20032;-80
2022/01/09 13:40:05;;;;;;;6.57;2.50;;;;;;;;;;5015681;28;20041;-80
2022/01/09 13:42:31;;;;;;;8.27;2.45;;;;;;;;;;5010249;28;20037;-80
2022/01/09 13:45:08;;;;;;;10.15;3.00;;;;;;;;;;5013885;28;20040;-80
2022/01/09 13:47:43;;;;;;;8.30;2.70;;;;;;;;;;4978038;28;20026;-80
2022/01/09 13:50:08;;;;;;;7.50;2.50;;;;;;;;;;4995054;28;20041;-80
2022/01/09 13:52:34;;;;;;;7.10;2.85;;;;;;;;;;4981259;28;20030;-79
2022/01/09 13:55:06;;;;;;;16.00;3.60;;;;;;;;;;5044465;28;20045;-83
2022/01/09 13:57:48;;;;;;;86.57;15.25;;;;;;;;;;5013631;28;20036;-80
2022/01/09 14:00:14;;;;;;;18.10;4.20;;;;;;;;;;5031218;28;20037;-81
2022/01/09 14:02:40;;;;;;;19.58;3.58;;;;;;;;;;5031197;28;20036;-79
2022/01/09 14:05:10;;;;;;;18.23;3.75;;;;;;;;;;5051834;28;20059;-80
2022/01/09 14:07:37;;;;;;;12.05;3.40;;;;;;;;;;5053925;28;20029;-79
2022/01/09 14:10:04;;;;;;;15.07;3.33;;;;;;;;;;5054185;28;20068;-79
2022/01/09 14:12:30;;;;;;;14.18;3.20;;;;;;;;;;5022794;28;20026;-80
2022/01/09 14:14:55;;;;;;;12.27;2.90;;;;;;;;;;5018694;28;20060;-79
2022/01/09 14:17:34;;;;;;;8.65;2.72;;;;;;;;;;5052033;28;20179;-79
2022/01/09 14:20:16;;;;;;;33.50;24.45;;;;;;;;;;5050047;28;20068;-79
2022/01/09 14:22:58;;;;;;;26.15;15.00;;;;;;;;;;5050270;28;20095;-80
2022/01/09 14:25:24;;;;;;;25.00;15.15;;;;;;;;;;5033857;28;20152;-80
2022/01/09 14:27:49;;;;;;;19.27;13.60;;;;;;;;;;5033316;28;20041;-79
2022/01/09 14:30:25;;;;;;;19.65;12.73;;;;;;;;;;5030317;28;20037;-79
2022/01/09 14:33:13;;;;;;;22.63;11.93;;;;;;;;;;5053002;28;20057;-79
2022/01/09 14:35:47;;;;;;;18.52;10.70;;;;;;;;;;5036336;28;20033;-79
2022/01/09 14:38:34;;;;;;;19.83;10.68;;;;;;;;;;5034968;28;20025;-79
2022/01/09 14:41:04;;;;;;;17.90;10.27;;;;;;;;;;5033687;28;20036;-82
2022/01/09 14:43:30;;;;;;;23.25;12.07;;;;;;;;;;5052082;28;20495;-78
2022/01/09 14:45:57;;;;;;;20.50;9.90;;;;;;;;;;5018835;28;20071;-78
2022/01/09 14:48:31;;;;;;;16.98;9.27;;;;;;;;;;5033346;28;20021;-79
2022/01/09 14:50:57;;;;;;;15.38;8.63;;;;;;;;;;5028487;28;20042;-79